Aviation Digital Data Service (ADDS)

Output produced by METARs form (2041 UTC 21 July 2017)
found at http://www.aviationweather.gov/adds/metars/
 
VCBI 212010Z 22009KT 9999 FEW017 28/24 Q1009 NOSIG
TAF VCBI 211540Z 2118/2224 22008KT 9999 SCT018 TX31/2207Z TN26/2123Z 
     PROB40 
     TEMPO 2122/2202 6000 -TSRA/SHRA FEW012 SCT016 FEW020CB